Time;durP1;ratioP1;P1;durP2;ratioP2;P2;SDS_P1;SDS_P2;PMS_P1;PMS_P2;Temp;Humidity;BMP_temperature;BMP_pressure;BME280_temperature;BME280_humidity;BME280_pressure;Samples;Min_cycle;Max_cycle;Signal;HPM_P1;HPM_P2
2023/04/22 00:00:39;;;;;;;0.00;0.00;;;;;;;;;;4992213;28;20038;-88
2023/04/22 00:03:07;;;;;;;0.00;0.00;;;;;;;;;;4992119;28;20050;-88
2023/04/22 00:05:33;;;;;;;0.00;0.00;;;;;;;;;;4991842;28;20046;-87
2023/04/22 00:07:59;;;;;;;0.00;0.00;;;;;;;;;;4975990;28;20100;-88
2023/04/22 00:10:25;;;;;;;0.00;0.00;;;;;;;;;;4975933;28;20050;-89
2023/04/22 00:12:51;;;;;;;0.00;0.00;;;;;;;;;;4975815;28;20192;-89
2023/04/22 00:15:20;;;;;;;0.00;0.00;;;;;;;;;;4991729;28;20549;-89
2023/04/22 00:17:46;;;;;;;0.00;0.00;;;;;;;;;;4976075;28;20049;-88
2023/04/22 00:20:12;;;;;;;0.00;0.00;;;;;;;;;;4975318;28;20039;-87
2023/04/22 00:22:38;;;;;;;0.00;0.00;;;;;;;;;;4991986;28;20100;-89
2023/04/22 00:25:04;;;;;;;0.00;0.00;;;;;;;;;;4975787;28;20038;-89
2023/04/22 00:27:30;;;;;;;0.00;0.00;;;;;;;;;;4975537;28;20047;-88
2023/04/22 00:29:56;;;;;;;0.00;0.00;;;;;;;;;;4975628;28;20038;-89
2023/04/22 00:32:22;;;;;;;0.00;0.00;;;;;;;;;;4975655;28;20050;-89
2023/04/22 00:34:49;;;;;;;0.00;0.00;;;;;;;;;;4991745;28;20093;-88
2023/04/22 00:37:15;;;;;;;0.00;0.00;;;;;;;;;;4995338;28;20443;-89
2023/04/22 00:39:41;;;;;;;0.00;0.00;;;;;;;;;;4995641;28;20043;-88
2023/04/22 00:42:07;;;;;;;0.00;0.00;;;;;;;;;;4995852;28;20157;-87
2023/04/22 00:44:33;;;;;;;0.00;0.00;;;;;;;;;;4995593;28;20548;-88
2023/04/22 00:46:59;;;;;;;0.00;0.00;;;;;;;;;;4979654;28;20162;-89
2023/04/22 00:49:26;;;;;;;0.17;0.10;;;;;;;;;;4979405;28;20046;-87
2023/04/22 00:51:53;;;;;;;0.00;0.00;;;;;;;;;;4979397;28;20046;-88
2023/04/22 00:54:19;;;;;;;0.00;0.00;;;;;;;;;;4978800;28;20042;-88
2023/04/22 00:56:45;;;;;;;0.00;0.00;;;;;;;;;;4979087;28;20073;-88
2023/04/22 00:59:12;;;;;;;0.00;0.00;;;;;;;;;;4979626;28;20042;-88
2023/04/22 01:01:38;;;;;;;0.43;0.00;;;;;;;;;;4995227;28;20504;-88
2023/04/22 01:04:05;;;;;;;0.00;0.00;;;;;;;;;;4994903;28;20058;-87
2023/04/22 01:06:31;;;;;;;0.00;0.00;;;;;;;;;;4978565;28;20039;-87
2023/04/22 01:08:58;;;;;;;0.00;0.00;;;;;;;;;;4978962;28;20147;-87
2023/04/22 01:11:24;;;;;;;0.20;0.03;;;;;;;;;;4978569;28;20475;-89
2023/04/22 01:13:50;;;;;;;0.00;0.00;;;;;;;;;;4978777;28;20042;-88
2023/04/22 01:16:16;;;;;;;0.10;0.00;;;;;;;;;;4978688;28;20456;-88
2023/04/22 01:18:42;;;;;;;0.00;0.00;;;;;;;;;;4979058;28;20331;-88
2023/04/22 01:21:08;;;;;;;0.00;0.00;;;;;;;;;;4978437;28;20069;-87
2023/04/22 01:23:34;;;;;;;0.00;0.00;;;;;;;;;;4978770;28;20042;-88
2023/04/22 01:26:00;;;;;;;0.00;0.00;;;;;;;;;;4995165;28;20042;-88
2023/04/22 01:28:27;;;;;;;0.00;0.00;;;;;;;;;;4979923;28;20333;-87
2023/04/22 01:30:53;;;;;;;0.00;0.00;;;;;;;;;;4995741;28;20544;-89
2023/04/22 01:33:19;;;;;;;0.00;0.00;;;;;;;;;;4979251;28;20042;-87
2023/04/22 01:35:45;;;;;;;0.00;0.00;;;;;;;;;;4978441;28;20097;-87
2023/04/22 01:38:11;;;;;;;0.00;0.00;;;;;;;;;;4978381;28;20042;-89
2023/04/22 01:40:38;;;;;;;0.00;0.00;;;;;;;;;;4978311;28;20046;-88
2023/04/22 01:43:04;;;;;;;0.00;0.00;;;;;;;;;;4994446;28;20050;-87
2023/04/22 01:45:30;;;;;;;0.00;0.00;;;;;;;;;;4978141;28;20486;-89
2023/04/22 01:47:56;;;;;;;0.00;0.00;;;;;;;;;;4977981;28;20560;-88
2023/04/22 01:50:23;;;;;;;0.00;0.00;;;;;;;;;;4994633;28;20077;-89
2023/04/22 01:52:49;;;;;;;0.00;0.00;;;;;;;;;;4978139;28;20074;-88
2023/04/22 01:55:15;;;;;;;0.00;0.00;;;;;;;;;;4977989;28;20105;-88
2023/04/22 01:57:41;;;;;;;0.00;0.00;;;;;;;;;;4978483;28;20142;-88
2023/04/22 02:00:08;;;;;;;0.00;0.00;;;;;;;;;;4994442;28;20042;-89
2023/04/22 02:02:34;;;;;;;0.00;0.00;;;;;;;;;;4978035;28;20042;-89
2023/04/22 02:05:00;;;;;;;0.00;0.00;;;;;;;;;;4977720;28;20100;-88
2023/04/22 02:07:26;;;;;;;0.00;0.00;;;;;;;;;;4978095;28;20046;-89
2023/04/22 02:09:52;;;;;;;0.00;0.00;;;;;;;;;;4978520;28;20046;-89
2023/04/22 02:12:18;;;;;;;0.00;0.00;;;;;;;;;;4977505;28;20486;-89
2023/04/22 02:14:44;;;;;;;0.00;0.00;;;;;;;;;;4994600;28;20042;-88
2023/04/22 02:17:10;;;;;;;0.00;0.00;;;;;;;;;;4978046;28;20050;-88
2023/04/22 02:19:36;;;;;;;0.00;0.00;;;;;;;;;;4978118;28;20042;-88
2023/04/22 02:22:02;;;;;;;0.00;0.00;;;;;;;;;;4994038;28;20041;-88
2023/04/22 02:24:28;;;;;;;0.00;0.00;;;;;;;;;;4977989;28;20494;-88
2023/04/22 02:26:54;;;;;;;0.00;0.00;;;;;;;;;;4977569;28;20133;-87
2023/04/22 02:29:20;;;;;;;0.00;0.00;;;;;;;;;;4994317;28;20446;-89
2023/04/22 02:31:46;;;;;;;0.00;0.00;;;;;;;;;;4993493;28;20042;-87
2023/04/22 02:34:12;;;;;;;0.05;0.00;;;;;;;;;;4993449;28;20046;-88
2023/04/22 02:36:38;;;;;;;0.00;0.00;;;;;;;;;;4993615;28;20125;-88
2023/04/22 02:39:05;;;;;;;0.00;0.00;;;;;;;;;;4993514;28;20097;-88
2023/04/22 02:41:31;;;;;;;0.00;0.00;;;;;;;;;;4977589;28;20050;-88
2023/04/22 02:43:57;;;;;;;0.00;0.00;;;;;;;;;;4977515;28;20042;-87
2023/04/22 02:46:23;;;;;;;0.00;0.00;;;;;;;;;;4976899;28;20054;-88
2023/04/22 02:48:49;;;;;;;0.00;0.00;;;;;;;;;;4994458;28;20046;-89
2023/04/22 02:51:15;;;;;;;0.00;0.00;;;;;;;;;;4976976;28;20397;-88
2023/04/22 02:53:41;;;;;;;0.00;0.00;;;;;;;;;;4977062;28;20042;-88
2023/04/22 02:56:08;;;;;;;0.00;0.00;;;;;;;;;;4976693;28;20042;-89
2023/04/22 02:58:34;;;;;;;0.20;0.10;;;;;;;;;;4976821;28;20080;-88
2023/04/22 03:01:00;;;;;;;0.00;0.00;;;;;;;;;;4992477;28;20053;-89
2023/04/22 03:03:26;;;;;;;0.00;0.00;;;;;;;;;;4992728;28;20062;-88
2023/04/22 03:05:52;;;;;;;0.00;0.00;;;;;;;;;;4976722;28;20046;-88
2023/04/22 03:08:19;;;;;;;0.00;0.00;;;;;;;;;;4977034;28;20128;-88
2023/04/22 03:10:45;;;;;;;0.00;0.00;;;;;;;;;;4992912;28;20046;-87
2023/04/22 03:13:14;;;;;;;0.00;0.00;;;;;;;;;;4976724;28;20478;-88
2023/04/22 03:15:41;;;;;;;0.00;0.00;;;;;;;;;;4976731;28;20397;-88
2023/04/22 03:18:07;;;;;;;0.00;0.00;;;;;;;;;;4976610;28;20042;-89
2023/04/22 03:20:33;;;;;;;0.00;0.00;;;;;;;;;;4976783;28;20084;-89
2023/04/22 03:22:59;;;;;;;0.00;0.00;;;;;;;;;;4992844;28;20394;-88
2023/04/22 03:25:25;;;;;;;0.00;0.00;;;;;;;;;;4976588;28;20051;-88
2023/04/22 03:27:51;;;;;;;0.00;0.00;;;;;;;;;;4992423;28;20038;-88
2023/04/22 03:30:18;;;;;;;0.00;0.00;;;;;;;;;;4992646;28;20053;-88
2023/04/22 03:32:44;;;;;;;0.00;0.00;;;;;;;;;;4992096;28;20038;-87
2023/04/22 03:35:10;;;;;;;0.00;0.00;;;;;;;;;;4976256;28;20228;-88
2023/04/22 03:37:37;;;;;;;0.00;0.00;;;;;;;;;;4992382;28;20042;-88
2023/04/22 03:40:04;;;;;;;0.30;0.05;;;;;;;;;;4992368;28;20474;-89
2023/04/22 03:42:30;;;;;;;0.00;0.00;;;;;;;;;;4976289;28;20038;-88
2023/04/22 03:44:56;;;;;;;0.00;0.00;;;;;;;;;;4992857;28;20042;-87
2023/04/22 03:47:22;;;;;;;0.00;0.00;;;;;;;;;;4992682;28;20046;-88
2023/04/22 03:49:48;;;;;;;0.00;0.00;;;;;;;;;;4992511;28;20038;-88
2023/04/22 03:52:15;;;;;;;0.00;0.00;;;;;;;;;;4992448;28;20497;-89
2023/04/22 03:54:41;;;;;;;0.00;0.00;;;;;;;;;;4976140;28;20042;-89
2023/04/22 03:57:07;;;;;;;0.00;0.00;;;;;;;;;;4975735;28;20038;-88
2023/04/22 03:59:33;;;;;;;0.00;0.00;;;;;;;;;;4991825;28;20049;-88
2023/04/22 04:01:59;;;;;;;0.00;0.00;;;;;;;;;;4976035;28;20129;-88
2023/04/22 04:04:26;;;;;;;0.00;0.00;;;;;;;;;;4992428;28;20054;-89
2023/04/22 04:06:52;;;;;;;0.00;0.00;;;;;;;;;;4976083;28;20173;-88
2023/04/22 04:09:18;;;;;;;0.00;0.00;;;;;;;;;;4992366;28;20482;-88
2023/04/22 04:11:44;;;;;;;0.00;0.00;;;;;;;;;;4975328;28;20129;-88
2023/04/22 04:14:11;;;;;;;0.00;0.00;;;;;;;;;;4991832;28;20137;-87
2023/04/22 04:16:37;;;;;;;0.00;0.00;;;;;;;;;;4991889;28;20042;-88
2023/04/22 04:19:03;;;;;;;0.20;0.10;;;;;;;;;;4992204;28;20034;-88
2023/04/22 04:21:32;;;;;;;0.00;0.00;;;;;;;;;;4992186;28;20041;-88
2023/04/22 04:23:58;;;;;;;0.00;0.00;;;;;;;;;;4976724;28;20050;-90
2023/04/22 04:26:26;;;;;;;0.00;0.00;;;;;;;;;;4992557;28;20394;-90
2023/04/22 04:28:52;;;;;;;0.00;0.00;;;;;;;;;;4976489;28;20068;-91
2023/04/22 04:31:18;;;;;;;0.00;0.00;;;;;;;;;;4976043;28;20552;-89
2023/04/22 04:33:45;;;;;;;0.00;0.00;;;;;;;;;;4992373;28;20046;-89
2023/04/22 04:36:11;;;;;;;0.00;0.00;;;;;;;;;;4976449;28;20090;-90
2023/04/22 04:38:37;;;;;;;0.00;0.00;;;;;;;;;;4976408;28;20081;-90
2023/04/22 04:41:04;;;;;;;0.00;0.00;;;;;;;;;;4975966;28;20045;-90
2023/04/22 04:43:30;;;;;;;0.00;0.00;;;;;;;;;;4991644;28;20050;-90
2023/04/22 04:45:56;;;;;;;0.00;0.00;;;;;;;;;;4992164;28;20042;-91
2023/04/22 04:48:25;;;;;;;0.00;0.00;;;;;;;;;;4976050;28;20070;-91
2023/04/22 04:50:52;;;;;;;0.00;0.00;;;;;;;;;;4976518;28;20121;-91
2023/04/22 04:53:19;;;;;;;0.00;0.00;;;;;;;;;;4992315;28;20069;-90
2023/04/22 04:55:45;;;;;;;0.00;0.00;;;;;;;;;;4976349;28;20038;-90
2023/04/22 04:58:11;;;;;;;0.00;0.00;;;;;;;;;;4992283;28;20039;-90
2023/04/22 05:00:37;;;;;;;0.00;0.00;;;;;;;;;;4992243;28;20057;-89
2023/04/22 05:03:03;;;;;;;0.00;0.00;;;;;;;;;;4959612;28;20053;-89
2023/04/22 05:05:30;;;;;;;0.00;0.00;;;;;;;;;;4992115;28;20061;-90
2023/04/22 05:07:56;;;;;;;0.30;0.00;;;;;;;;;;4991864;28;20062;-89
2023/04/22 05:10:22;;;;;;;0.00;0.00;;;;;;;;;;4976043;28;20447;-90
2023/04/22 05:12:48;;;;;;;0.00;0.00;;;;;;;;;;4975482;28;20265;-90
2023/04/22 05:15:14;;;;;;;0.00;0.00;;;;;;;;;;4976105;28;20435;-91
2023/04/22 05:17:40;;;;;;;0.00;0.00;;;;;;;;;;4975984;28;20088;-90
2023/04/22 05:20:06;;;;;;;0.00;0.00;;;;;;;;;;4975969;28;20042;-91
2023/04/22 05:22:34;;;;;;;0.00;0.00;;;;;;;;;;4992283;28;20130;-90
2023/04/22 05:25:00;;;;;;;0.00;0.00;;;;;;;;;;4980033;28;20042;-91
2023/04/22 05:27:26;;;;;;;0.00;0.00;;;;;;;;;;4995940;28;20096;-91
2023/04/22 05:29:54;;;;;;;0.00;0.00;;;;;;;;;;4979802;28;20042;-91
2023/04/22 05:32:20;;;;;;;0.00;0.00;;;;;;;;;;4981242;28;20046;-91
2023/04/22 05:34:46;;;;;;;0.00;0.00;;;;;;;;;;4997366;28;20038;-93
2023/04/22 05:37:15;;;;;;;0.00;0.00;;;;;;;;;;4981969;28;20422;-91
2023/04/22 05:39:42;;;;;;;0.00;0.00;;;;;;;;;;4995501;28;20038;-89
2023/04/22 05:42:08;;;;;;;0.00;0.00;;;;;;;;;;4995528;28;20215;-91
2023/04/22 05:44:34;;;;;;;0.00;0.00;;;;;;;;;;4995366;28;20046;-91
2023/04/22 05:47:00;;;;;;;0.00;0.00;;;;;;;;;;4995122;28;20046;-91
2023/04/22 05:49:29;;;;;;;0.00;0.00;;;;;;;;;;4980240;28;20042;-92
2023/04/22 05:51:55;;;;;;;0.55;0.00;;;;;;;;;;4979296;28;20560;-91
2023/04/22 05:54:21;;;;;;;0.00;0.00;;;;;;;;;;4978656;28;20039;-92
2023/04/22 05:56:47;;;;;;;0.00;0.00;;;;;;;;;;4979578;28;20050;-92
2023/04/22 05:59:12;;;;;;;0.00;0.00;;;;;;;;;;4996344;28;20078;-92
2023/04/22 06:01:38;;;;;;;0.00;0.00;;;;;;;;;;4995889;28;20136;-91
2023/04/22 06:04:05;;;;;;;0.00;0.00;;;;;;;;;;4978700;28;20059;-91
2023/04/22 06:06:31;;;;;;;0.00;0.00;;;;;;;;;;4978521;28;20047;-90
2023/04/22 06:08:57;;;;;;;0.00;0.00;;;;;;;;;;4978057;28;20070;-91
2023/04/22 06:11:27;;;;;;;0.00;0.00;;;;;;;;;;4978279;28;20061;-91
2023/04/22 06:13:55;;;;;;;0.00;0.00;;;;;;;;;;4994111;28;20050;-91
2023/04/22 06:16:22;;;;;;;0.00;0.00;;;;;;;;;;4977894;28;20042;-90
2023/04/22 06:18:48;;;;;;;0.00;0.00;;;;;;;;;;4977603;28;20038;-90
2023/04/22 06:21:14;;;;;;;0.00;0.00;;;;;;;;;;4978089;28;20043;-91
2023/04/22 06:23:40;;;;;;;0.00;0.00;;;;;;;;;;4994378;28;20150;-90
2023/04/22 06:26:06;;;;;;;0.00;0.00;;;;;;;;;;4978675;28;20042;-90
2023/04/22 06:28:32;;;;;;;0.00;0.00;;;;;;;;;;4978474;28;20077;-90
2023/04/22 06:30:58;;;;;;;0.00;0.00;;;;;;;;;;4994759;28;20046;-90
2023/04/22 06:33:24;;;;;;;0.00;0.00;;;;;;;;;;4977393;28;20050;-89
2023/04/22 06:35:50;;;;;;;0.00;0.00;;;;;;;;;;4993826;28;20069;-90
2023/04/22 06:38:19;;;;;;;0.00;0.00;;;;;;;;;;4977378;28;20073;-90
2023/04/22 06:40:47;;;;;;;0.00;0.00;;;;;;;;;;4978227;28;20125;-90
2023/04/22 06:43:13;;;;;;;0.00;0.00;;;;;;;;;;4993316;28;20185;-89
2023/04/22 06:45:39;;;;;;;0.00;0.00;;;;;;;;;;4993795;28;20089;-91
2023/04/22 06:48:05;;;;;;;0.00;0.00;;;;;;;;;;4978021;28;20050;-90
2023/04/22 06:50:31;;;;;;;0.00;0.00;;;;;;;;;;4978019;28;20046;-90
2023/04/22 06:52:57;;;;;;;0.00;0.00;;;;;;;;;;4977895;28;20132;-91
2023/04/22 06:55:23;;;;;;;0.00;0.00;;;;;;;;;;4978748;28;20035;-90
2023/04/22 06:57:54;;;;;;;0.22;0.10;;;;;;;;;;4979562;28;20039;-90
2023/04/22 07:00:20;;;;;;;0.00;0.00;;;;;;;;;;4979327;28;20042;-90
2023/04/22 07:02:46;;;;;;;0.00;0.00;;;;;;;;;;4979346;28;20054;-89
2023/04/22 07:05:13;;;;;;;0.00;0.00;;;;;;;;;;4978641;28;20062;-90
2023/04/22 07:07:39;;;;;;;0.20;0.20;;;;;;;;;;4977843;28;20109;-90
2023/04/22 07:10:05;;;;;;;0.00;0.00;;;;;;;;;;4976976;28;20398;-93
2023/04/22 07:12:31;;;;;;;0.00;0.00;;;;;;;;;;4977805;28;20466;-91
2023/04/22 07:14:57;;;;;;;0.00;0.00;;;;;;;;;;4977709;28;20082;-92
2023/04/22 07:17:26;;;;;;;0.00;0.00;;;;;;;;;;4993756;28;20049;-91
2023/04/22 07:19:52;;;;;;;0.00;0.00;;;;;;;;;;4977183;28;20038;-91
2023/04/22 07:22:18;;;;;;;0.00;0.00;;;;;;;;;;4976968;28;20041;-89
2023/04/22 07:24:44;;;;;;;0.00;0.00;;;;;;;;;;4992725;28;20141;-91
2023/04/22 07:27:10;;;;;;;0.00;0.00;;;;;;;;;;4977047;28;20068;-90
2023/04/22 07:29:36;;;;;;;0.00;0.00;;;;;;;;;;4976684;28;20454;-90
2023/04/22 07:32:02;;;;;;;0.00;0.00;;;;;;;;;;4976644;28;20042;-90
2023/04/22 07:34:29;;;;;;;0.00;0.00;;;;;;;;;;4976159;28;20406;-90
2023/04/22 07:36:55;;;;;;;0.00;0.00;;;;;;;;;;4976504;28;20042;-90
2023/04/22 07:39:22;;;;;;;0.00;0.00;;;;;;;;;;4992974;28;20077;-89
2023/04/22 07:41:48;;;;;;;0.00;0.00;;;;;;;;;;4977061;28;20501;-89
2023/04/22 07:44:17;;;;;;;0.00;0.00;;;;;;;;;;4976343;28;20048;-90
2023/04/22 07:46:43;;;;;;;0.00;0.00;;;;;;;;;;4975776;28;20099;-90
2023/04/22 07:49:10;;;;;;;0.00;0.00;;;;;;;;;;4992831;28;20053;-90
2023/04/22 07:51:36;;;;;;;0.43;0.00;;;;;;;;;;4976577;28;20104;-90
2023/04/22 07:54:05;;;;;;;0.00;0.00;;;;;;;;;;4991860;28;20410;-90
2023/04/22 07:56:31;;;;;;;0.00;0.00;;;;;;;;;;4975937;28;20153;-90
2023/04/22 07:58:57;;;;;;;0.00;0.00;;;;;;;;;;4976281;28;20050;-90
2023/04/22 08:01:23;;;;;;;0.00;0.00;;;;;;;;;;4976138;28;20046;-90
2023/04/22 08:03:49;;;;;;;0.00;0.00;;;;;;;;;;4991866;28;20058;-90
2023/04/22 08:06:18;;;;;;;0.00;0.00;;;;;;;;;;4976489;28;20486;-90
2023/04/22 08:08:44;;;;;;;0.00;0.00;;;;;;;;;;4975895;28;20049;-92
2023/04/22 08:11:13;;;;;;;0.00;0.00;;;;;;;;;;4992192;28;20470;-90
2023/04/22 08:13:42;;;;;;;0.30;0.00;;;;;;;;;;4991754;28;20034;-89
2023/04/22 08:16:08;;;;;;;0.20;0.00;;;;;;;;;;4992367;28;20371;-89
2023/04/22 08:18:34;;;;;;;0.00;0.00;;;;;;;;;;4992360;28;20077;-90
2023/04/22 08:21:01;;;;;;;0.00;0.00;;;;;;;;;;4975675;28;20046;-89
2023/04/22 08:23:27;;;;;;;0.00;0.00;;;;;;;;;;4991943;28;20053;-90
2023/04/22 08:25:53;;;;;;;0.00;0.00;;;;;;;;;;4976029;28;20042;-89
2023/04/22 08:28:19;;;;;;;0.00;0.00;;;;;;;;;;4976563;28;20042;-92
2023/04/22 08:30:45;;;;;;;0.00;0.00;;;;;;;;;;4975728;28;20264;-88
2023/04/22 08:33:11;;;;;;;0.00;0.00;;;;;;;;;;4976197;28;20082;-89
2023/04/22 08:35:40;;;;;;;0.00;0.00;;;;;;;;;;4991808;28;20538;-90
2023/04/22 08:38:06;;;;;;;0.00;0.00;;;;;;;;;;4975957;28;20443;-89
2023/04/22 08:40:33;;;;;;;0.00;0.00;;;;;;;;;;4991264;28;20073;-89
2023/04/22 08:42:59;;;;;;;0.00;0.00;;;;;;;;;;4991756;28;20505;-88
2023/04/22 08:45:26;;;;;;;0.00;0.00;;;;;;;;;;4991499;28;20160;-90
2023/04/22 08:47:52;;;;;;;0.05;0.00;;;;;;;;;;4991793;28;20042;-89
2023/04/22 08:50:19;;;;;;;0.00;0.00;;;;;;;;;;4991162;28;20100;-89
2023/04/22 08:52:45;;;;;;;0.00;0.00;;;;;;;;;;4975250;28;20426;-89
2023/04/22 08:55:15;;;;;;;0.00;0.00;;;;;;;;;;4975398;28;20481;-90
2023/04/22 08:57:41;;;;;;;0.00;0.00;;;;;;;;;;4993817;28;20047;-88
2023/04/22 09:00:08;;;;;;;0.00;0.00;;;;;;;;;;4979939;28;20178;-94
2023/04/22 09:02:36;;;;;;;0.00;0.00;;;;;;;;;;4995916;28;20121;-90
2023/04/22 09:05:04;;;;;;;0.30;0.10;;;;;;;;;;4980679;28;20406;-92
2023/04/22 09:07:35;;;;;;;0.13;0.00;;;;;;;;;;4979558;28;20104;-90
2023/04/22 09:10:03;;;;;;;0.00;0.00;;;;;;;;;;4995649;28;20050;-91
2023/04/22 09:12:30;;;;;;;0.00;0.00;;;;;;;;;;4995703;28;20367;-90
2023/04/22 09:14:56;;;;;;;0.00;0.00;;;;;;;;;;4995161;28;20133;-91
2023/04/22 09:17:32;;;;;;;0.00;0.00;;;;;;;;;;4979526;28;20359;-91
2023/04/22 09:20:03;;;;;;;0.00;0.00;;;;;;;;;;4980301;28;20038;-89
2023/04/22 09:22:36;;;;;;;0.00;0.00;;;;;;;;;;4995778;28;20046;-91
2023/04/22 09:25:04;;;;;;;0.00;0.00;;;;;;;;;;4978784;28;20042;-89
2023/04/22 09:27:30;;;;;;;0.00;0.00;;;;;;;;;;4978499;28;20077;-89
2023/04/22 09:29:56;;;;;;;0.00;0.00;;;;;;;;;;4978602;28;20450;-89
2023/04/22 09:32:25;;;;;;;0.00;0.00;;;;;;;;;;4978404;28;20084;-89
2023/04/22 09:34:52;;;;;;;0.00;0.00;;;;;;;;;;4978281;28;20105;-90
2023/04/22 09:37:23;;;;;;;0.00;0.00;;;;;;;;;;4979094;28;20046;-91
2023/04/22 09:39:50;;;;;;;0.00;0.00;;;;;;;;;;4978671;28;20398;-92
2023/04/22 09:42:16;;;;;;;0.00;0.00;;;;;;;;;;4978437;28;20497;-91
2023/04/22 09:44:45;;;;;;;0.08;0.03;;;;;;;;;;4978583;28;20046;-92
2023/04/22 09:47:11;;;;;;;0.00;0.00;;;;;;;;;;4994955;28;20054;-90
2023/04/22 09:49:37;;;;;;;0.00;0.00;;;;;;;;;;4978268;28;20092;-90
2023/04/22 09:52:03;;;;;;;0.00;0.00;;;;;;;;;;4993078;28;20108;-91
2023/04/22 09:54:29;;;;;;;0.00;0.00;;;;;;;;;;4978577;28;20548;-90
2023/04/22 09:56:55;;;;;;;0.00;0.00;;;;;;;;;;4978230;28;20125;-90
2023/04/22 09:59:26;;;;;;;0.10;0.00;;;;;;;;;;4994699;28;20121;-91
2023/04/22 10:01:54;;;;;;;0.00;0.00;;;;;;;;;;4978359;28;20038;-92
2023/04/22 10:04:21;;;;;;;0.00;0.00;;;;;;;;;;4978012;28;20058;-89
2023/04/22 10:06:48;;;;;;;0.00;0.00;;;;;;;;;;4994110;28;20441;-90
2023/04/22 10:09:14;;;;;;;0.00;0.00;;;;;;;;;;4977696;28;20109;-90
2023/04/22 10:11:40;;;;;;;0.00;0.00;;;;;;;;;;4977905;28;20128;-90
2023/04/22 10:14:09;;;;;;;0.00;0.00;;;;;;;;;;4977919;28;20054;-89
2023/04/22 10:16:35;;;;;;;0.00;0.00;;;;;;;;;;4977439;28;20038;-89
2023/04/22 10:19:04;;;;;;;0.00;0.00;;;;;;;;;;4977597;28;20038;-89
2023/04/22 10:21:31;;;;;;;0.80;0.43;;;;;;;;;;4993656;28;20085;-88
2023/04/22 10:24:00;;;;;;;0.00;0.00;;;;;;;;;;4977634;28;20100;-88
2023/04/22 10:26:39;;;;;;;0.00;0.00;;;;;;;;;;4977108;28;20454;-89
2023/04/22 10:29:06;;;;;;;0.20;0.00;;;;;;;;;;4977278;28;20046;-89
2023/04/22 10:31:32;;;;;;;0.00;0.00;;;;;;;;;;4993547;28;20042;-88
2023/04/22 10:34:14;;;;;;;0.00;0.00;;;;;;;;;;4993578;28;20092;-88
2023/04/22 10:36:52;;;;;;;0.00;0.00;;;;;;;;;;4977333;28;20042;-88
2023/04/22 10:39:20;;;;;;;0.00;0.00;;;;;;;;;;4993331;28;20382;-88
2023/04/22 10:41:50;;;;;;;0.00;0.00;;;;;;;;;;4977060;28;20046;-88
2023/04/22 10:44:16;;;;;;;0.00;0.00;;;;;;;;;;4993077;28;20053;-88
2023/04/22 10:46:52;;;;;;;0.00;0.00;;;;;;;;;;4977036;28;20078;-88
2023/04/22 10:49:22;;;;;;;0.30;0.00;;;;;;;;;;4993237;28;20096;-89
2023/04/22 10:51:49;;;;;;;0.00;0.00;;;;;;;;;;4993032;28;20198;-87
2023/04/22 10:54:36;;;;;;;0.00;0.00;;;;;;;;;;4976486;28;20140;-87
2023/04/22 10:57:02;;;;;;;0.00;0.00;;;;;;;;;;4969717;28;20050;-89
2023/04/22 10:59:28;;;;;;;0.00;0.00;;;;;;;;;;4976636;28;20077;-89
2023/04/22 11:01:54;;;;;;;0.35;0.35;;;;;;;;;;4976363;28;20248;-87
2023/04/22 11:04:24;;;;;;;0.00;0.00;;;;;;;;;;4976475;28;20411;-89
2023/04/22 11:07:08;;;;;;;0.00;0.00;;;;;;;;;;4992891;28;20143;-89
2023/04/22 11:09:39;;;;;;;0.00;0.00;;;;;;;;;;4976853;28;20478;-89
2023/04/22 11:12:23;;;;;;;0.00;0.00;;;;;;;;;;4976634;28;20097;-89
2023/04/22 11:14:49;;;;;;;0.00;0.00;;;;;;;;;;4992802;28;20042;-88
2023/04/22 11:17:18;;;;;;;0.22;0.20;;;;;;;;;;4976757;28;20137;-89
2023/04/22 11:19:46;;;;;;;0.00;0.00;;;;;;;;;;4992131;28;20049;-88
2023/04/22 11:22:12;;;;;;;0.00;0.00;;;;;;;;;;4992091;28;20516;-89
2023/04/22 11:24:38;;;;;;;0.05;0.00;;;;;;;;;;4977214;28;20449;-89
2023/04/22 11:27:05;;;;;;;0.00;0.00;;;;;;;;;;4992404;28;20042;-88
2023/04/22 11:29:31;;;;;;;0.00;0.00;;;;;;;;;;4976204;28;20520;-89
2023/04/22 11:31:57;;;;;;;0.00;0.00;;;;;;;;;;4992155;28;20077;-88
2023/04/22 11:34:23;;;;;;;0.00;0.00;;;;;;;;;;4992813;28;20202;-90
2023/04/22 11:36:49;;;;;;;0.00;0.00;;;;;;;;;;4975805;28;20098;-90
2023/04/22 11:39:17;;;;;;;0.00;0.00;;;;;;;;;;4992746;28;20117;-90
2023/04/22 11:41:43;;;;;;;0.00;0.00;;;;;;;;;;4976301;28;20049;-90
2023/04/22 11:44:09;;;;;;;0.00;0.00;;;;;;;;;;4992702;28;20042;-88
2023/04/22 11:46:38;;;;;;;0.00;0.00;;;;;;;;;;4992352;28;20192;-88
2023/04/22 11:49:17;;;;;;;0.00;0.00;;;;;;;;;;4976018;28;20049;-89
2023/04/22 11:51:53;;;;;;;0.00;0.00;;;;;;;;;;4975686;28;20383;-90
2023/04/22 11:54:29;;;;;;;0.00;0.00;;;;;;;;;;4991972;28;20046;-89
2023/04/22 11:56:55;;;;;;;0.00;0.00;;;;;;;;;;4975684;28;20039;-88
2023/04/22 11:59:23;;;;;;;0.43;0.05;;;;;;;;;;4975854;28;20054;-88
2023/04/22 12:01:49;;;;;;;0.00;0.00;;;;;;;;;;4976213;28;20474;-89
2023/04/22 12:04:15;;;;;;;0.00;0.00;;;;;;;;;;4976255;28;20061;-90
2023/04/22 12:06:42;;;;;;;0.00;0.00;;;;;;;;;;4992129;28;20489;-88
2023/04/22 12:09:09;;;;;;;0.00;0.00;;;;;;;;;;4975971;28;20102;-88
2023/04/22 12:11:35;;;;;;;0.00;0.00;;;;;;;;;;4976296;28;20560;-89
2023/04/22 12:14:05;;;;;;;0.00;0.00;;;;;;;;;;4976493;28;20078;-88
2023/04/22 12:16:40;;;;;;;0.00;0.00;;;;;;;;;;4992726;28;20055;-88
2023/04/22 12:19:06;;;;;;;0.00;0.00;;;;;;;;;;4992239;28;20049;-90
2023/04/22 12:21:32;;;;;;;0.00;0.00;;;;;;;;;;4991744;28;20046;-89
2023/04/22 12:24:00;;;;;;;0.08;0.00;;;;;;;;;;4991781;28;20077;-88
2023/04/22 12:26:26;;;;;;;0.10;0.00;;;;;;;;;;4975407;28;20512;-89
2023/04/22 12:28:52;;;;;;;0.00;0.00;;;;;;;;;;4992007;28;20042;-87
2023/04/22 12:31:19;;;;;;;0.00;0.00;;;;;;;;;;4976080;28;20375;-90
2023/04/22 12:33:45;;;;;;;0.00;0.00;;;;;;;;;;4979870;28;20398;-90
2023/04/22 12:36:12;;;;;;;0.00;0.00;;;;;;;;;;4996054;28;20053;-90
2023/04/22 12:38:38;;;;;;;0.00;0.00;;;;;;;;;;4995829;28;20173;-91
2023/04/22 12:41:05;;;;;;;0.00;0.00;;;;;;;;;;4979333;28;20049;-89
2023/04/22 12:43:34;;;;;;;0.00;0.00;;;;;;;;;;4995570;28;20046;-89
2023/04/22 12:46:00;;;;;;;0.00;0.00;;;;;;;;;;4979317;28;20046;-87
2023/04/22 12:48:26;;;;;;;0.00;0.00;;;;;;;;;;4995489;28;20441;-87
2023/04/22 12:50:52;;;;;;;0.00;0.00;;;;;;;;;;4995425;28;20043;-85
2023/04/22 12:53:18;;;;;;;0.00;0.00;;;;;;;;;;4996657;28;20049;-88
2023/04/22 12:55:44;;;;;;;0.00;0.00;;;;;;;;;;4979340;28;20097;-87
2023/04/22 12:58:10;;;;;;;0.00;0.00;;;;;;;;;;4978881;28;20038;-88
2023/04/22 13:00:36;;;;;;;0.00;0.00;;;;;;;;;;4995284;28;20470;-88
2023/04/22 13:03:02;;;;;;;0.00;0.00;;;;;;;;;;4978284;28;20137;-88
2023/04/22 13:05:28;;;;;;;0.00;0.00;;;;;;;;;;4979235;28;20050;-89
2023/04/22 13:07:54;;;;;;;0.13;0.00;;;;;;;;;;4978541;28;20057;-89
2023/04/22 13:10:21;;;;;;;0.00;0.00;;;;;;;;;;4995393;28;20077;-89
2023/04/22 13:12:47;;;;;;;0.00;0.00;;;;;;;;;;4994951;28;20093;-88
2023/04/22 13:15:18;;;;;;;0.00;0.00;;;;;;;;;;4994928;28;20129;-88
2023/04/22 13:17:44;;;;;;;0.60;0.00;;;;;;;;;;4978763;28;20398;-89
2023/04/22 13:20:12;;;;;;;0.00;0.00;;;;;;;;;;4995002;28;20288;-89
2023/04/22 13:22:40;;;;;;;0.00;0.00;;;;;;;;;;4994643;28;20053;-89
2023/04/22 13:25:07;;;;;;;0.00;0.00;;;;;;;;;;4978795;28;20118;-89
2023/04/22 13:27:33;;;;;;;0.00;0.00;;;;;;;;;;4978626;28;20525;-88
2023/04/22 13:29:59;;;;;;;0.00;0.00;;;;;;;;;;4994634;28;20095;-88
2023/04/22 13:32:25;;;;;;;0.00;0.00;;;;;;;;;;4978204;28;20049;-89
2023/04/22 13:34:51;;;;;;;0.00;0.00;;;;;;;;;;4978523;28;20061;-91
2023/04/22 13:37:19;;;;;;;0.00;0.00;;;;;;;;;;4994594;28;20038;-89
2023/04/22 13:39:45;;;;;;;0.00;0.00;;;;;;;;;;4978667;28;20034;-90
2023/04/22 13:42:11;;;;;;;0.08;0.08;;;;;;;;;;4978454;28;20042;-88
2023/04/22 13:44:37;;;;;;;0.00;0.00;;;;;;;;;;4993900;28;20046;-89
2023/04/22 13:47:03;;;;;;;0.00;0.00;;;;;;;;;;4977954;28;20092;-88
2023/04/22 13:49:29;;;;;;;0.10;0.08;;;;;;;;;;4978284;28;20042;-88
2023/04/22 13:51:55;;;;;;;0.20;0.03;;;;;;;;;;4994988;28;20057;-90
2023/04/22 13:54:22;;;;;;;0.00;0.00;;;;;;;;;;4995188;28;20054;-93
2023/04/22 13:56:49;;;;;;;0.00;0.00;;;;;;;;;;4978490;28;20052;-92
2023/04/22 13:59:15;;;;;;;0.22;0.22;;;;;;;;;;4994428;28;20045;-90
2023/04/22 14:01:41;;;;;;;0.00;0.00;;;;;;;;;;4994637;28;20042;-91
2023/04/22 14:04:07;;;;;;;0.10;0.00;;;;;;;;;;4994155;28;20146;-91
2023/04/22 14:06:33;;;;;;;0.00;0.00;;;;;;;;;;4978294;28;20050;-91
2023/04/22 14:09:00;;;;;;;0.00;0.00;;;;;;;;;;4994223;28;20078;-90
2023/04/22 14:11:26;;;;;;;0.05;0.00;;;;;;;;;;4994391;28;20128;-90
2023/04/22 14:13:52;;;;;;;0.00;0.00;;;;;;;;;;4994158;28;20088;-90
2023/04/22 14:16:18;;;;;;;0.00;0.00;;;;;;;;;;4994947;28;20042;-91
2023/04/22 14:18:45;;;;;;;0.00;0.00;;;;;;;;;;4994292;28;20066;-92
2023/04/22 14:21:11;;;;;;;0.00;0.00;;;;;;;;;;4994088;28;20053;-90
2023/04/22 14:23:38;;;;;;;0.00;0.00;;;;;;;;;;4994453;28;20406;-91
2023/04/22 14:26:04;;;;;;;0.00;0.00;;;;;;;;;;4994532;28;20081;-91
2023/04/22 14:28:30;;;;;;;0.00;0.00;;;;;;;;;;4977622;28;20054;-91
2023/04/22 14:30:56;;;;;;;0.00;0.00;;;;;;;;;;4978015;28;20049;-91
2023/04/22 14:33:26;;;;;;;0.00;0.00;;;;;;;;;;4994220;28;20042;-92
2023/04/22 14:35:52;;;;;;;0.00;0.00;;;;;;;;;;4978355;28;20046;-91
2023/04/22 14:38:18;;;;;;;0.00;0.00;;;;;;;;;;4977480;28;20042;-91
2023/04/22 14:40:47;;;;;;;0.00;0.00;;;;;;;;;;4994346;28;20100;-90